sensor_id;sensor_type;location;lat;lon;timestamp;P1;durP1;ratioP1;P2;durP2;ratioP2
10116;SDS011;5098;48.792;9.012;2023-08-17T00:00:21;18.33;;;15.77;;
10116;SDS011;5098;48.792;9.012;2023-08-17T00:02:47;17.87;;;16.13;;
10116;SDS011;5098;48.792;9.012;2023-08-17T00:05:13;16.70;;;15.13;;
10116;SDS011;5098;48.792;9.012;2023-08-17T00:07:40;16.53;;;14.83;;
10116;SDS011;5098;48.792;9.012;2023-08-17T00:10:06;17.43;;;15.73;;
10116;SDS011;5098;48.792;9.012;2023-08-17T00:12:32;15.57;;;14.17;;
10116;SDS011;5098;48.792;9.012;2023-08-17T00:14:58;16.77;;;14.70;;
10116;SDS011;5098;48.792;9.012;2023-08-17T00:17:24;14.57;;;13.27;;
10116;SDS011;5098;48.792;9.012;2023-08-17T00:19:50;14.43;;;12.97;;
10116;SDS011;5098;48.792;9.012;2023-08-17T00:22:16;15.40;;;13.60;;
10116;SDS011;5098;48.792;9.012;2023-08-17T00:24:42;15.10;;;13.70;;
10116;SDS011;5098;48.792;9.012;2023-08-17T00:27:10;15.33;;;13.90;;
10116;SDS011;5098;48.792;9.012;2023-08-17T00:29:36;15.60;;;13.20;;
10116;SDS011;5098;48.792;9.012;2023-08-17T00:32:02;14.07;;;12.50;;
10116;SDS011;5098;48.792;9.012;2023-08-17T00:34:29;14.87;;;13.40;;
10116;SDS011;5098;48.792;9.012;2023-08-17T00:36:55;16.80;;;13.67;;
10116;SDS011;5098;48.792;9.012;2023-08-17T00:39:21;12.50;;;11.40;;
10116;SDS011;5098;48.792;9.012;2023-08-17T00:41:47;12.10;;;11.00;;
10116;SDS011;5098;48.792;9.012;2023-08-17T00:44:13;17.70;;;11.97;;
10116;SDS011;5098;48.792;9.012;2023-08-17T00:46:39;14.20;;;11.87;;
10116;SDS011;5098;48.792;9.012;2023-08-17T00:49:06;13.77;;;12.40;;
10116;SDS011;5098;48.792;9.012;2023-08-17T00:51:32;15.50;;;14.00;;
10116;SDS011;5098;48.792;9.012;2023-08-17T00:53:59;15.43;;;13.80;;
10116;SDS011;5098;48.792;9.012;2023-08-17T00:56:27;17.23;;;15.57;;
10116;SDS011;5098;48.792;9.012;2023-08-17T00:58:54;19.73;;;16.50;;
10116;SDS011;5098;48.792;9.012;2023-08-17T01:01:20;15.97;;;14.47;;
10116;SDS011;5098;48.792;9.012;2023-08-17T01:03:47;16.37;;;14.67;;
10116;SDS011;5098;48.792;9.012;2023-08-17T01:06:13;17.77;;;16.07;;
10116;SDS011;5098;48.792;9.012;2023-08-17T01:08:39;16.50;;;14.80;;
10116;SDS011;5098;48.792;9.012;2023-08-17T01:16:08;15.77;;;14.27;;
10116;SDS011;5098;48.792;9.012;2023-08-17T01:18:39;16.67;;;15.13;;
10116;SDS011;5098;48.792;9.012;2023-08-17T01:21:06;17.80;;;16.20;;
10116;SDS011;5098;48.792;9.012;2023-08-17T01:23:33;19.63;;;17.53;;
10116;SDS011;5098;48.792;9.012;2023-08-17T01:26:00;16.13;;;14.43;;
10116;SDS011;5098;48.792;9.012;2023-08-17T01:28:26;15.90;;;13.90;;
10116;SDS011;5098;48.792;9.012;2023-08-17T01:33:20;14.40;;;13.07;;
10116;SDS011;5098;48.792;9.012;2023-08-17T01:38:24;14.33;;;12.83;;
10116;SDS011;5098;48.792;9.012;2023-08-17T01:40:51;14.20;;;12.87;;
10116;SDS011;5098;48.792;9.012;2023-08-17T01:43:19;15.57;;;13.97;;
10116;SDS011;5098;48.792;9.012;2023-08-17T01:45:45;14.50;;;13.10;;
10116;SDS011;5098;48.792;9.012;2023-08-17T01:48:11;13.63;;;12.33;;
10116;SDS011;5098;48.792;9.012;2023-08-17T01:50:37;14.13;;;12.70;;
10116;SDS011;5098;48.792;9.012;2023-08-17T01:53:04;13.63;;;12.40;;
10116;SDS011;5098;48.792;9.012;2023-08-17T01:55:30;13.70;;;12.40;;
10116;SDS011;5098;48.792;9.012;2023-08-17T01:57:56;14.73;;;12.10;;
10116;SDS011;5098;48.792;9.012;2023-08-17T02:00:22;13.57;;;12.27;;
10116;SDS011;5098;48.792;9.012;2023-08-17T02:02:48;13.07;;;11.87;;
10116;SDS011;5098;48.792;9.012;2023-08-17T02:05:14;12.20;;;11.20;;
10116;SDS011;5098;48.792;9.012;2023-08-17T02:07:40;11.83;;;10.63;;
10116;SDS011;5098;48.792;9.012;2023-08-17T02:10:06;17.20;;;10.43;;
10116;SDS011;5098;48.792;9.012;2023-08-17T02:12:32;13.03;;;11.40;;
10116;SDS011;5098;48.792;9.012;2023-08-17T02:14:58;11.80;;;10.70;;
10116;SDS011;5098;48.792;9.012;2023-08-17T02:17:24;10.67;;;9.73;;
10116;SDS011;5098;48.792;9.012;2023-08-17T02:19:50;11.80;;;9.50;;
10116;SDS011;5098;48.792;9.012;2023-08-17T02:22:16;10.80;;;9.80;;
10116;SDS011;5098;48.792;9.012;2023-08-17T02:24:42;11.07;;;10.07;;
10116;SDS011;5098;48.792;9.012;2023-08-17T02:27:09;13.10;;;11.70;;
10116;SDS011;5098;48.792;9.012;2023-08-17T02:29:35;10.77;;;9.87;;
10116;SDS011;5098;48.792;9.012;2023-08-17T02:32:01;11.13;;;10.00;;
10116;SDS011;5098;48.792;9.012;2023-08-17T02:34:27;10.20;;;9.20;;
10116;SDS011;5098;48.792;9.012;2023-08-17T02:36:53;10.33;;;9.30;;
10116;SDS011;5098;48.792;9.012;2023-08-17T02:39:19;10.53;;;9.43;;
10116;SDS011;5098;48.792;9.012;2023-08-17T02:41:45;10.50;;;9.50;;
10116;SDS011;5098;48.792;9.012;2023-08-17T02:44:14;10.97;;;9.83;;
10116;SDS011;5098;48.792;9.012;2023-08-17T02:46:40;10.10;;;9.27;;
10116;SDS011;5098;48.792;9.012;2023-08-17T02:49:06;11.20;;;9.90;;
10116;SDS011;5098;48.792;9.012;2023-08-17T02:51:32;11.43;;;10.43;;
10116;SDS011;5098;48.792;9.012;2023-08-17T02:53:58;11.73;;;10.07;;
10116;SDS011;5098;48.792;9.012;2023-08-17T02:56:24;11.80;;;10.70;;
10116;SDS011;5098;48.792;9.012;2023-08-17T02:58:51;13.63;;;10.87;;
10116;SDS011;5098;48.792;9.012;2023-08-17T03:01:17;13.20;;;12.00;;
10116;SDS011;5098;48.792;9.012;2023-08-17T03:03:43;14.13;;;12.90;;
10116;SDS011;5098;48.792;9.012;2023-08-17T03:06:09;15.70;;;14.27;;
10116;SDS011;5098;48.792;9.012;2023-08-17T03:08:35;15.73;;;14.23;;
10116;SDS011;5098;48.792;9.012;2023-08-17T03:11:01;21.20;;;17.20;;
10116;SDS011;5098;48.792;9.012;2023-08-17T03:13:27;23.30;;;18.37;;
10116;SDS011;5098;48.792;9.012;2023-08-17T03:15:54;25.43;;;18.73;;
10116;SDS011;5098;48.792;9.012;2023-08-17T03:18:20;19.53;;;17.10;;
10116;SDS011;5098;48.792;9.012;2023-08-17T03:20:46;20.43;;;16.07;;
10116;SDS011;5098;48.792;9.012;2023-08-17T03:23:12;23.97;;;17.70;;
10116;SDS011;5098;48.792;9.012;2023-08-17T03:25:38;19.90;;;15.77;;
10116;SDS011;5098;48.792;9.012;2023-08-17T03:28:04;28.63;;;18.30;;
10116;SDS011;5098;48.792;9.012;2023-08-17T03:30:30;23.00;;;17.50;;
10116;SDS011;5098;48.792;9.012;2023-08-17T03:32:56;24.93;;;17.37;;
10116;SDS011;5098;48.792;9.012;2023-08-17T03:35:22;21.37;;;16.83;;
10116;SDS011;5098;48.792;9.012;2023-08-17T03:37:49;21.53;;;15.77;;
10116;SDS011;5098;48.792;9.012;2023-08-17T03:40:15;18.80;;;16.80;;
10116;SDS011;5098;48.792;9.012;2023-08-17T03:42:41;20.80;;;15.60;;
10116;SDS011;5098;48.792;9.012;2023-08-17T03:45:07;21.33;;;16.10;;
10116;SDS011;5098;48.792;9.012;2023-08-17T03:47:33;19.83;;;16.03;;
10116;SDS011;5098;48.792;9.012;2023-08-17T03:49:59;20.20;;;16.43;;
10116;SDS011;5098;48.792;9.012;2023-08-17T03:52:25;15.53;;;13.93;;
10116;SDS011;5098;48.792;9.012;2023-08-17T03:54:51;14.80;;;13.20;;
10116;SDS011;5098;48.792;9.012;2023-08-17T03:57:17;16.07;;;14.37;;
10116;SDS011;5098;48.792;9.012;2023-08-17T03:59:43;15.73;;;13.80;;
10116;SDS011;5098;48.792;9.012;2023-08-17T04:02:09;18.50;;;14.70;;
10116;SDS011;5098;48.792;9.012;2023-08-17T04:04:36;20.37;;;13.97;;
10116;SDS011;5098;48.792;9.012;2023-08-17T04:07:02;19.57;;;14.00;;
10116;SDS011;5098;48.792;9.012;2023-08-17T04:09:28;17.70;;;15.10;;
10116;SDS011;5098;48.792;9.012;2023-08-17T04:11:55;17.60;;;13.50;;
10116;SDS011;5098;48.792;9.012;2023-08-17T04:14:22;18.80;;;14.57;;
10116;SDS011;5098;48.792;9.012;2023-08-17T04:16:48;17.33;;;13.70;;
10116;SDS011;5098;48.792;9.012;2023-08-17T04:19:14;18.80;;;15.37;;
10116;SDS011;5098;48.792;9.012;2023-08-17T04:21:40;17.70;;;13.63;;
10116;SDS011;5098;48.792;9.012;2023-08-17T04:24:06;17.50;;;13.70;;
10116;SDS011;5098;48.792;9.012;2023-08-17T04:26:32;17.00;;;13.73;;
10116;SDS011;5098;48.792;9.012;2023-08-17T04:28:58;16.73;;;14.00;;
10116;SDS011;5098;48.792;9.012;2023-08-17T04:31:24;17.03;;;15.23;;
10116;SDS011;5098;48.792;9.012;2023-08-17T04:33:51;16.83;;;13.37;;
10116;SDS011;5098;48.792;9.012;2023-08-17T04:36:17;15.27;;;12.60;;
10116;SDS011;5098;48.792;9.012;2023-08-17T04:38:43;16.33;;;13.83;;
10116;SDS011;5098;48.792;9.012;2023-08-17T04:41:09;15.20;;;13.60;;
10116;SDS011;5098;48.792;9.012;2023-08-17T04:43:35;14.83;;;13.30;;
10116;SDS011;5098;48.792;9.012;2023-08-17T04:46:01;18.90;;;14.43;;
10116;SDS011;5098;48.792;9.012;2023-08-17T04:48:27;14.77;;;13.27;;
10116;SDS011;5098;48.792;9.012;2023-08-17T04:50:53;15.87;;;14.17;;
10116;SDS011;5098;48.792;9.012;2023-08-17T04:53:23;16.20;;;13.70;;
10116;SDS011;5098;48.792;9.012;2023-08-17T04:55:49;15.67;;;13.10;;
10116;SDS011;5098;48.792;9.012;2023-08-17T04:58:15;16.43;;;14.83;;
10116;SDS011;5098;48.792;9.012;2023-08-17T05:00:41;16.10;;;13.00;;
10116;SDS011;5098;48.792;9.012;2023-08-17T05:03:07;16.07;;;12.60;;
10116;SDS011;5098;48.792;9.012;2023-08-17T05:05:33;17.37;;;15.53;;
10116;SDS011;5098;48.792;9.012;2023-08-17T05:08:03;16.47;;;14.27;;
10116;SDS011;5098;48.792;9.012;2023-08-17T05:10:29;17.40;;;13.23;;
10116;SDS011;5098;48.792;9.012;2023-08-17T05:12:55;15.83;;;13.10;;
10116;SDS011;5098;48.792;9.012;2023-08-17T05:15:21;16.63;;;13.90;;
10116;SDS011;5098;48.792;9.012;2023-08-17T05:17:47;14.73;;;13.30;;
10116;SDS011;5098;48.792;9.012;2023-08-17T05:20:13;15.90;;;13.30;;
10116;SDS011;5098;48.792;9.012;2023-08-17T05:22:39;15.07;;;13.47;;
10116;SDS011;5098;48.792;9.012;2023-08-17T05:25:08;14.50;;;13.03;;
10116;SDS011;5098;48.792;9.012;2023-08-17T05:27:34;13.30;;;12.00;;
10116;SDS011;5098;48.792;9.012;2023-08-17T05:30:03;17.93;;;14.47;;
10116;SDS011;5098;48.792;9.012;2023-08-17T05:32:29;16.53;;;14.13;;
10116;SDS011;5098;48.792;9.012;2023-08-17T05:34:56;17.47;;;13.13;;
10116;SDS011;5098;48.792;9.012;2023-08-17T05:37:22;15.53;;;14.03;;
10116;SDS011;5098;48.792;9.012;2023-08-17T05:39:48;18.23;;;16.33;;
10116;SDS011;5098;48.792;9.012;2023-08-17T05:42:14;19.20;;;15.83;;
10116;SDS011;5098;48.792;9.012;2023-08-17T05:44:40;17.47;;;15.60;;
10116;SDS011;5098;48.792;9.012;2023-08-17T05:47:06;16.67;;;14.97;;
10116;SDS011;5098;48.792;9.012;2023-08-17T05:49:32;18.87;;;15.87;;
10116;SDS011;5098;48.792;9.012;2023-08-17T05:51:58;15.47;;;13.87;;
10116;SDS011;5098;48.792;9.012;2023-08-17T05:54:24;17.97;;;16.07;;
10116;SDS011;5098;48.792;9.012;2023-08-17T05:56:50;18.70;;;16.20;;
10116;SDS011;5098;48.792;9.012;2023-08-17T05:59:16;19.43;;;14.77;;
10116;SDS011;5098;48.792;9.012;2023-08-17T06:01:45;18.37;;;15.80;;
10116;SDS011;5098;48.792;9.012;2023-08-17T06:04:11;17.20;;;15.30;;
10116;SDS011;5098;48.792;9.012;2023-08-17T06:06:40;17.70;;;14.13;;
10116;SDS011;5098;48.792;9.012;2023-08-17T06:09:06;15.07;;;13.57;;
10116;SDS011;5098;48.792;9.012;2023-08-17T06:11:34;15.13;;;13.60;;
10116;SDS011;5098;48.792;9.012;2023-08-17T06:14:00;17.50;;;15.80;;
10116;SDS011;5098;48.792;9.012;2023-08-17T06:16:26;16.20;;;14.30;;
10116;SDS011;5098;48.792;9.012;2023-08-17T06:18:52;15.80;;;14.20;;
10116;SDS011;5098;48.792;9.012;2023-08-17T06:21:18;14.87;;;13.27;;
10116;SDS011;5098;48.792;9.012;2023-08-17T06:23:44;16.80;;;15.10;;
10116;SDS011;5098;48.792;9.012;2023-08-17T06:26:10;16.53;;;14.53;;
10116;SDS011;5098;48.792;9.012;2023-08-17T06:28:36;16.13;;;14.40;;
10116;SDS011;5098;48.792;9.012;2023-08-17T06:31:02;15.13;;;13.10;;
10116;SDS011;5098;48.792;9.012;2023-08-17T06:33:28;14.50;;;13.00;;
10116;SDS011;5098;48.792;9.012;2023-08-17T06:35:54;14.00;;;12.60;;
10116;SDS011;5098;48.792;9.012;2023-08-17T06:38:20;17.50;;;12.80;;
10116;SDS011;5098;48.792;9.012;2023-08-17T06:40:50;12.53;;;11.20;;
10116;SDS011;5098;48.792;9.012;2023-08-17T06:43:17;13.47;;;12.07;;
10116;SDS011;5098;48.792;9.012;2023-08-17T06:45:43;15.60;;;13.93;;
10116;SDS011;5098;48.792;9.012;2023-08-17T06:48:09;13.23;;;11.90;;
10116;SDS011;5098;48.792;9.012;2023-08-17T06:50:35;14.30;;;12.60;;
10116;SDS011;5098;48.792;9.012;2023-08-17T06:53:02;16.03;;;14.40;;
10116;SDS011;5098;48.792;9.012;2023-08-17T06:55:28;18.73;;;16.77;;
10116;SDS011;5098;48.792;9.012;2023-08-17T06:57:54;16.37;;;14.77;;
10116;SDS011;5098;48.792;9.012;2023-08-17T07:00:20;14.37;;;12.83;;
10116;SDS011;5098;48.792;9.012;2023-08-17T07:02:49;13.23;;;11.93;;
10116;SDS011;5098;48.792;9.012;2023-08-17T07:05:16;12.70;;;11.50;;
10116;SDS011;5098;48.792;9.012;2023-08-17T07:07:43;14.87;;;12.90;;
10116;SDS011;5098;48.792;9.012;2023-08-17T07:10:09;15.07;;;13.67;;
10116;SDS011;5098;48.792;9.012;2023-08-17T07:12:39;14.40;;;13.00;;
10116;SDS011;5098;48.792;9.012;2023-08-17T07:15:05;13.93;;;12.53;;
10116;SDS011;5098;48.792;9.012;2023-08-17T07:17:32;15.50;;;13.40;;
10116;SDS011;5098;48.792;9.012;2023-08-17T07:20:02;15.83;;;14.23;;
10116;SDS011;5098;48.792;9.012;2023-08-17T07:22:29;14.63;;;13.23;;
10116;SDS011;5098;48.792;9.012;2023-08-17T07:24:55;14.90;;;13.47;;
10116;SDS011;5098;48.792;9.012;2023-08-17T07:27:21;16.03;;;14.43;;
10116;SDS011;5098;48.792;9.012;2023-08-17T07:29:47;14.33;;;12.93;;
10116;SDS011;5098;48.792;9.012;2023-08-17T07:32:13;16.00;;;14.47;;
10116;SDS011;5098;48.792;9.012;2023-08-17T07:34:39;13.10;;;11.80;;
10116;SDS011;5098;48.792;9.012;2023-08-17T07:37:09;13.50;;;12.20;;
10116;SDS011;5098;48.792;9.012;2023-08-17T07:39:35;14.83;;;13.47;;
10116;SDS011;5098;48.792;9.012;2023-08-17T07:42:01;14.13;;;12.90;;
10116;SDS011;5098;48.792;9.012;2023-08-17T07:44:28;13.00;;;11.60;;
10116;SDS011;5098;48.792;9.012;2023-08-17T07:46:56;14.67;;;13.30;;
10116;SDS011;5098;48.792;9.012;2023-08-17T07:49:22;13.33;;;12.13;;
10116;SDS011;5098;48.792;9.012;2023-08-17T07:51:49;13.87;;;12.67;;
10116;SDS011;5098;48.792;9.012;2023-08-17T07:54:15;12.37;;;11.07;;
10116;SDS011;5098;48.792;9.012;2023-08-17T07:56:41;11.23;;;10.20;;
10116;SDS011;5098;48.792;9.012;2023-08-17T07:59:07;13.27;;;12.07;;
10116;SDS011;5098;48.792;9.012;2023-08-17T08:01:33;14.53;;;10.50;;
10116;SDS011;5098;48.792;9.012;2023-08-17T08:03:59;12.37;;;11.27;;
10116;SDS011;5098;48.792;9.012;2023-08-17T08:06:26;10.30;;;9.40;;
10116;SDS011;5098;48.792;9.012;2023-08-17T08:08:52;10.73;;;9.73;;
10116;SDS011;5098;48.792;9.012;2023-08-17T08:11:18;11.70;;;10.60;;
10116;SDS011;5098;48.792;9.012;2023-08-17T08:13:44;11.47;;;10.27;;
10116;SDS011;5098;48.792;9.012;2023-08-17T08:16:10;10.70;;;9.70;;
10116;SDS011;5098;48.792;9.012;2023-08-17T08:18:36;11.83;;;10.73;;
10116;SDS011;5098;48.792;9.012;2023-08-17T08:21:02;10.10;;;9.20;;
10116;SDS011;5098;48.792;9.012;2023-08-17T08:23:28;9.93;;;9.03;;
10116;SDS011;5098;48.792;9.012;2023-08-17T08:25:54;9.70;;;8.90;;
10116;SDS011;5098;48.792;9.012;2023-08-17T08:28:20;9.27;;;8.30;;
10116;SDS011;5098;48.792;9.012;2023-08-17T08:30:46;8.47;;;7.77;;
10116;SDS011;5098;48.792;9.012;2023-08-17T08:33:12;10.67;;;9.60;;
10116;SDS011;5098;48.792;9.012;2023-08-17T08:35:38;9.90;;;8.97;;
10116;SDS011;5098;48.792;9.012;2023-08-17T08:38:04;10.13;;;9.23;;
10116;SDS011;5098;48.792;9.012;2023-08-17T08:40:30;9.20;;;7.43;;
10116;SDS011;5098;48.792;9.012;2023-08-17T08:42:57;7.27;;;6.57;;
10116;SDS011;5098;48.792;9.012;2023-08-17T08:45:24;7.83;;;7.10;;
10116;SDS011;5098;48.792;9.012;2023-08-17T08:47:50;8.33;;;7.63;;
10116;SDS011;5098;48.792;9.012;2023-08-17T08:50:18;8.17;;;7.37;;
10116;SDS011;5098;48.792;9.012;2023-08-17T08:52:47;7.07;;;6.37;;
10116;SDS011;5098;48.792;9.012;2023-08-17T08:55:17;8.57;;;7.50;;
10116;SDS011;5098;48.792;9.012;2023-08-17T08:57:44;7.83;;;7.17;;
10116;SDS011;5098;48.792;9.012;2023-08-17T09:00:12;6.20;;;5.80;;
10116;SDS011;5098;48.792;9.012;2023-08-17T09:02:38;6.97;;;6.37;;
10116;SDS011;5098;48.792;9.012;2023-08-17T09:05:05;9.27;;;8.37;;
10116;SDS011;5098;48.792;9.012;2023-08-17T09:07:31;7.80;;;7.10;;
10116;SDS011;5098;48.792;9.012;2023-08-17T09:09:58;6.40;;;5.90;;
10116;SDS011;5098;48.792;9.012;2023-08-17T09:12:24;12.63;;;11.57;;
10116;SDS011;5098;48.792;9.012;2023-08-17T09:14:51;42.30;;;38.40;;
10116;SDS011;5098;48.792;9.012;2023-08-17T09:17:23;28.63;;;25.73;;
10116;SDS011;5098;48.792;9.012;2023-08-17T09:19:49;8.07;;;7.47;;
10116;SDS011;5098;48.792;9.012;2023-08-17T09:22:25;25.30;;;20.77;;
10116;SDS011;5098;48.792;9.012;2023-08-17T09:24:52;8.90;;;7.73;;
10116;SDS011;5098;48.792;9.012;2023-08-17T09:27:18;7.80;;;7.10;;
10116;SDS011;5098;48.792;9.012;2023-08-17T09:29:44;8.00;;;7.30;;
10116;SDS011;5098;48.792;9.012;2023-08-17T09:32:16;6.67;;;6.17;;
10116;SDS011;5098;48.792;9.012;2023-08-17T09:34:43;6.80;;;6.30;;
10116;SDS011;5098;48.792;9.012;2023-08-17T09:37:11;8.07;;;7.20;;
10116;SDS011;5098;48.792;9.012;2023-08-17T09:39:38;7.10;;;6.40;;
10116;SDS011;5098;48.792;9.012;2023-08-17T09:42:04;7.20;;;6.60;;
10116;SDS011;5098;48.792;9.012;2023-08-17T09:44:32;6.70;;;6.10;;
10116;SDS011;5098;48.792;9.012;2023-08-17T09:47:00;7.20;;;6.50;;
10116;SDS011;5098;48.792;9.012;2023-08-17T09:49:26;5.67;;;5.20;;
10116;SDS011;5098;48.792;9.012;2023-08-17T09:51:52;7.37;;;6.07;;
10116;SDS011;5098;48.792;9.012;2023-08-17T09:54:21;6.57;;;5.93;;
10116;SDS011;5098;48.792;9.012;2023-08-17T09:56:53;6.93;;;6.20;;
10116;SDS011;5098;48.792;9.012;2023-08-17T09:59:20;9.30;;;6.80;;
10116;SDS011;5098;48.792;9.012;2023-08-17T10:01:47;7.50;;;7.00;;
10116;SDS011;5098;48.792;9.012;2023-08-17T10:04:21;6.63;;;6.03;;
10116;SDS011;5098;48.792;9.012;2023-08-17T10:06:48;6.70;;;6.20;;
10116;SDS011;5098;48.792;9.012;2023-08-17T10:09:19;7.80;;;7.00;;
10116;SDS011;5098;48.792;9.012;2023-08-17T10:11:47;7.70;;;6.90;;
10116;SDS011;5098;48.792;9.012;2023-08-17T10:14:18;7.23;;;6.63;;
10116;SDS011;5098;48.792;9.012;2023-08-17T10:16:53;9.33;;;7.10;;
10116;SDS011;5098;48.792;9.012;2023-08-17T10:19:37;6.67;;;6.17;;
10116;SDS011;5098;48.792;9.012;2023-08-17T10:25:03;7.70;;;7.00;;
10116;SDS011;5098;48.792;9.012;2023-08-17T10:27:31;6.40;;;5.83;;
10116;SDS011;5098;48.792;9.012;2023-08-17T10:29:58;6.80;;;6.20;;
10116;SDS011;5098;48.792;9.012;2023-08-17T10:32:24;6.80;;;6.10;;
10116;SDS011;5098;48.792;9.012;2023-08-17T10:34:51;6.90;;;6.40;;
10116;SDS011;5098;48.792;9.012;2023-08-17T10:37:18;6.97;;;6.30;;
10116;SDS011;5098;48.792;9.012;2023-08-17T10:39:45;7.43;;;6.57;;
10116;SDS011;5098;48.792;9.012;2023-08-17T10:42:12;7.70;;;6.60;;
10116;SDS011;5098;48.792;9.012;2023-08-17T10:47:24;7.10;;;6.50;;
10116;SDS011;5098;48.792;9.012;2023-08-17T10:49:57;6.97;;;6.43;;
10116;SDS011;5098;48.792;9.012;2023-08-17T10:52:27;8.23;;;7.30;;
10116;SDS011;5098;48.792;9.012;2023-08-17T10:54:53;6.67;;;6.17;;
10116;SDS011;5098;48.792;9.012;2023-08-17T10:57:32;8.10;;;7.50;;
10116;SDS011;5098;48.792;9.012;2023-08-17T11:00:11;10.60;;;6.80;;
10116;SDS011;5098;48.792;9.012;2023-08-17T11:02:39;8.53;;;6.50;;
10116;SDS011;5098;48.792;9.012;2023-08-17T11:05:05;6.90;;;6.33;;
10116;SDS011;5098;48.792;9.012;2023-08-17T11:07:39;6.67;;;6.17;;
10116;SDS011;5098;48.792;9.012;2023-08-17T11:10:11;7.47;;;6.77;;
10116;SDS011;5098;48.792;9.012;2023-08-17T11:12:37;7.13;;;6.53;;
10116;SDS011;5098;48.792;9.012;2023-08-17T11:15:04;7.80;;;6.23;;
10116;SDS011;5098;48.792;9.012;2023-08-17T11:17:30;7.77;;;6.97;;
10116;SDS011;5098;48.792;9.012;2023-08-17T11:19:56;6.83;;;6.23;;
10116;SDS011;5098;48.792;9.012;2023-08-17T11:22:22;7.10;;;6.40;;
10116;SDS011;5098;48.792;9.012;2023-08-17T11:24:48;7.50;;;6.80;;
10116;SDS011;5098;48.792;9.012;2023-08-17T11:27:14;7.30;;;6.70;;
10116;SDS011;5098;48.792;9.012;2023-08-17T11:29:40;7.27;;;6.57;;
10116;SDS011;5098;48.792;9.012;2023-08-17T11:32:08;6.87;;;6.13;;
10116;SDS011;5098;48.792;9.012;2023-08-17T11:34:35;6.83;;;6.37;;
10116;SDS011;5098;48.792;9.012;2023-08-17T11:37:01;7.30;;;6.80;;
10116;SDS011;5098;48.792;9.012;2023-08-17T11:39:27;10.40;;;9.60;;
10116;SDS011;5098;48.792;9.012;2023-08-17T11:41:53;10.67;;;9.33;;
10116;SDS011;5098;48.792;9.012;2023-08-17T11:44:19;11.03;;;8.70;;
10116;SDS011;5098;48.792;9.012;2023-08-17T11:46:46;8.73;;;8.03;;
10116;SDS011;5098;48.792;9.012;2023-08-17T11:49:12;9.07;;;8.37;;
10116;SDS011;5098;48.792;9.012;2023-08-17T11:51:38;7.97;;;7.37;;
10116;SDS011;5098;48.792;9.012;2023-08-17T11:54:05;8.73;;;7.93;;
10116;SDS011;5098;48.792;9.012;2023-08-17T11:56:33;8.10;;;7.30;;
10116;SDS011;5098;48.792;9.012;2023-08-17T11:58:59;8.07;;;7.47;;
10116;SDS011;5098;48.792;9.012;2023-08-17T12:01:33;8.87;;;7.97;;
10116;SDS011;5098;48.792;9.012;2023-08-17T12:04:00;13.93;;;12.17;;
10116;SDS011;5098;48.792;9.012;2023-08-17T12:06:26;9.40;;;7.60;;
10116;SDS011;5098;48.792;9.012;2023-08-17T12:08:52;8.70;;;8.00;;
10116;SDS011;5098;48.792;9.012;2023-08-17T12:11:18;9.20;;;8.30;;
10116;SDS011;5098;48.792;9.012;2023-08-17T12:13:48;8.63;;;7.73;;
10116;SDS011;5098;48.792;9.012;2023-08-17T12:16:16;10.13;;;9.23;;
10116;SDS011;5098;48.792;9.012;2023-08-17T12:18:52;10.30;;;9.53;;
10116;SDS011;5098;48.792;9.012;2023-08-17T12:21:21;10.63;;;9.67;;
10116;SDS011;5098;48.792;9.012;2023-08-17T12:23:48;7.90;;;7.10;;
10116;SDS011;5098;48.792;9.012;2023-08-17T12:26:20;10.20;;;9.20;;
10116;SDS011;5098;48.792;9.012;2023-08-17T12:28:47;9.27;;;8.37;;
10116;SDS011;5098;48.792;9.012;2023-08-17T12:31:13;10.40;;;9.40;;
10116;SDS011;5098;48.792;9.012;2023-08-17T12:33:39;9.80;;;8.90;;
10116;SDS011;5098;48.792;9.012;2023-08-17T12:36:05;10.73;;;9.63;;
10116;SDS011;5098;48.792;9.012;2023-08-17T12:38:31;10.07;;;9.27;;
10116;SDS011;5098;48.792;9.012;2023-08-17T12:40:57;9.90;;;9.00;;
10116;SDS011;5098;48.792;9.012;2023-08-17T12:43:23;9.73;;;8.30;;
10116;SDS011;5098;48.792;9.012;2023-08-17T12:45:49;9.40;;;8.50;;
10116;SDS011;5098;48.792;9.012;2023-08-17T12:48:16;10.20;;;9.37;;
10116;SDS011;5098;48.792;9.012;2023-08-17T12:50:42;8.80;;;8.10;;
10116;SDS011;5098;48.792;9.012;2023-08-17T12:53:08;9.43;;;8.57;;
10116;SDS011;5098;48.792;9.012;2023-08-17T12:55:34;8.83;;;7.93;;
10116;SDS011;5098;48.792;9.012;2023-08-17T12:58:02;10.80;;;9.80;;
10116;SDS011;5098;48.792;9.012;2023-08-17T13:00:28;10.97;;;10.00;;
10116;SDS011;5098;48.792;9.012;2023-08-17T13:02:54;13.57;;;10.40;;
10116;SDS011;5098;48.792;9.012;2023-08-17T13:05:20;13.00;;;10.57;;
10116;SDS011;5098;48.792;9.012;2023-08-17T13:07:46;11.80;;;10.80;;
10116;SDS011;5098;48.792;9.012;2023-08-17T13:10:12;12.07;;;10.93;;
10116;SDS011;5098;48.792;9.012;2023-08-17T13:12:38;11.70;;;10.77;;
10116;SDS011;5098;48.792;9.012;2023-08-17T13:15:05;14.43;;;13.07;;
10116;SDS011;5098;48.792;9.012;2023-08-17T13:17:31;14.57;;;13.17;;
10116;SDS011;5098;48.792;9.012;2023-08-17T13:19:57;13.30;;;12.17;;
10116;SDS011;5098;48.792;9.012;2023-08-17T13:22:23;15.03;;;13.73;;
10116;SDS011;5098;48.792;9.012;2023-08-17T13:24:49;16.03;;;14.70;;
10116;SDS011;5098;48.792;9.012;2023-08-17T13:27:15;15.20;;;13.80;;
10116;SDS011;5098;48.792;9.012;2023-08-17T13:29:41;13.33;;;12.23;;
10116;SDS011;5098;48.792;9.012;2023-08-17T13:32:07;12.17;;;10.73;;
10116;SDS011;5098;48.792;9.012;2023-08-17T13:34:33;11.57;;;10.30;;
10116;SDS011;5098;48.792;9.012;2023-08-17T13:36:59;11.40;;;10.20;;
10116;SDS011;5098;48.792;9.012;2023-08-17T13:39:28;12.43;;;11.43;;
10116;SDS011;5098;48.792;9.012;2023-08-17T13:41:54;11.90;;;10.90;;
10116;SDS011;5098;48.792;9.012;2023-08-17T13:44:22;12.13;;;11.13;;
10116;SDS011;5098;48.792;9.012;2023-08-17T13:46:48;13.23;;;11.50;;
10116;SDS011;5098;48.792;9.012;2023-08-17T13:49:15;12.73;;;11.53;;
10116;SDS011;5098;48.792;9.012;2023-08-17T13:51:43;12.87;;;11.83;;
10116;SDS011;5098;48.792;9.012;2023-08-17T13:54:09;12.47;;;11.47;;
10116;SDS011;5098;48.792;9.012;2023-08-17T13:56:35;12.60;;;11.33;;
10116;SDS011;5098;48.792;9.012;2023-08-17T13:59:01;12.67;;;11.60;;
10116;SDS011;5098;48.792;9.012;2023-08-17T14:01:28;13.93;;;12.83;;
10116;SDS011;5098;48.792;9.012;2023-08-17T14:03:54;14.03;;;12.93;;
10116;SDS011;5098;48.792;9.012;2023-08-17T14:06:20;16.30;;;13.10;;
10116;SDS011;5098;48.792;9.012;2023-08-17T14:08:46;13.87;;;12.63;;
10116;SDS011;5098;48.792;9.012;2023-08-17T14:11:12;15.13;;;13.83;;
10116;SDS011;5098;48.792;9.012;2023-08-17T14:13:38;13.63;;;12.50;;
10116;SDS011;5098;48.792;9.012;2023-08-17T14:16:04;14.67;;;13.23;;
10116;SDS011;5098;48.792;9.012;2023-08-17T14:18:30;15.37;;;13.97;;
10116;SDS011;5098;48.792;9.012;2023-08-17T14:20:56;16.40;;;15.00;;
10116;SDS011;5098;48.792;9.012;2023-08-17T14:23:23;14.20;;;12.80;;
10116;SDS011;5098;48.792;9.012;2023-08-17T14:25:49;14.07;;;12.87;;
10116;SDS011;5098;48.792;9.012;2023-08-17T14:28:17;14.53;;;13.33;;
10116;SDS011;5098;48.792;9.012;2023-08-17T14:30:43;12.47;;;11.17;;
10116;SDS011;5098;48.792;9.012;2023-08-17T14:33:09;12.37;;;11.17;;
10116;SDS011;5098;48.792;9.012;2023-08-17T14:35:35;12.37;;;11.37;;
10116;SDS011;5098;48.792;9.012;2023-08-17T14:38:04;12.73;;;11.53;;
10116;SDS011;5098;48.792;9.012;2023-08-17T14:40:30;13.40;;;12.30;;
10116;SDS011;5098;48.792;9.012;2023-08-17T14:42:56;13.40;;;12.20;;
10116;SDS011;5098;48.792;9.012;2023-08-17T14:45:23;12.00;;;10.90;;
10116;SDS011;5098;48.792;9.012;2023-08-17T14:47:49;14.57;;;13.17;;
10116;SDS011;5098;48.792;9.012;2023-08-17T14:50:15;14.60;;;13.40;;
10116;SDS011;5098;48.792;9.012;2023-08-17T14:52:41;14.27;;;12.77;;
10116;SDS011;5098;48.792;9.012;2023-08-17T14:55:07;14.40;;;13.20;;